Time;durP1;ratioP1;P1;durP2;ratioP2;P2;SDS_P1;SDS_P2;PMS_P1;PMS_P2;Temp;Humidity;BMP_temperature;BMP_pressure;BME280_temperature;BME280_humidity;BME280_pressure;Samples;Min_cycle;Max_cycle;Signal;HPM_P1;HPM_P2
2022/09/23 00:04:43;;;;;;;5.70;5.20;;;;;10.30;99201.00;;;;16595331;28;20237;-49
2022/09/23 00:12:46;;;;;;;6.33;5.83;;;;;10.50;99194.00;;;;16594201;28;20739;-50
2022/09/23 00:20:50;;;;;;;6.20;5.70;;;;;10.40;99190.00;;;;16601529;28;20215;-50
2022/09/23 00:28:52;;;;;;;6.00;5.50;;;;;10.00;99193.00;;;;16594046;28;20222;-49
2022/09/23 00:36:56;;;;;;;6.53;5.93;;;;;10.00;99186.00;;;;16589357;28;20230;-48
2022/09/23 00:44:59;;;;;;;6.73;6.20;;;;;9.90;99179.00;;;;16592276;28;20229;-49
2022/09/23 00:53:08;;;;;;;6.87;6.13;;;;;10.50;99169.00;;;;16583800;28;20690;-50
2022/09/23 01:01:12;;;;;;;5.77;5.27;;;;;10.50;99172.00;;;;16590732;28;20263;-49
2022/09/23 01:09:16;;;;;;;6.47;5.90;;;;;10.50;99175.00;;;;16594724;28;20230;-51
2022/09/23 01:17:26;;;;;;;6.77;6.07;;;;;10.40;99169.00;;;;16591314;28;20223;-50
2022/09/23 01:25:41;;;;;;;5.60;5.20;;;;;10.30;99165.00;;;;16590893;28;20255;-49
2022/09/23 01:33:51;;;;;;;5.20;4.80;;;;;9.90;99165.00;;;;16579271;28;20221;-49
2022/09/23 01:41:59;;;;;;;6.27;5.67;;;;;10.20;99158.00;;;;16589348;28;20230;-49
2022/09/23 01:50:54;;;;;;;7.30;6.67;;;;;10.50;99146.00;;;;16598455;28;20220;-49
2022/09/23 01:58:33;;;;;;;6.20;5.70;;;;;10.00;99145.00;;;;16586738;28;20225;-50
2022/09/23 02:06:40;;;;;;;6.57;6.00;;;;;9.60;99146.00;;;;16592909;28;20588;-50
2022/09/23 02:14:45;;;;;;;7.57;6.97;;;;;10.10;99139.00;;;;16588333;28;20306;-50
2022/09/23 02:22:54;;;;;;;6.80;6.10;;;;;9.60;99140.00;;;;16589166;28;20224;-50
2022/09/23 02:31:07;;;;;;;6.80;6.20;;;;;10.00;99122.00;;;;16589342;28;20209;-50
2022/09/23 02:39:14;;;;;;;6.00;5.50;;;;;9.50;99137.00;;;;16593174;28;20206;-50
2022/09/23 02:47:17;;;;;;;13.53;6.83;;;;;9.50;99133.00;;;;16582593;28;20232;-50
2022/09/23 02:55:22;;;;;;;7.40;6.60;;;;;9.60;99127.00;;;;16567154;28;20250;-50
2022/09/23 03:03:35;;;;;;;7.13;6.53;;;;;10.00;99122.00;;;;16575771;28;20222;-51
2022/09/23 03:11:41;;;;;;;8.30;7.57;;;;;10.00;99116.00;;;;16582611;28;20240;-50
2022/09/23 03:19:48;;;;;;;8.70;7.90;;;;;10.10;99118.00;;;;16572661;28;20209;-50
2022/09/23 03:27:55;;;;;;;7.33;6.73;;;;;9.70;99125.00;;;;16604643;28;20244;-51
2022/09/23 03:44:23;;;;;;;8.23;7.30;;;;;9.50;99120.00;;;;16605412;28;20347;-49
2022/09/23 03:52:26;;;;;;;10.67;9.57;;;;;9.60;99113.00;;;;16575059;28;20227;-49
2022/09/23 04:00:30;;;;;;;8.27;7.40;;;;;9.50;99103.00;;;;16584199;28;20297;-50
2022/09/23 04:08:32;;;;;;;8.60;7.80;;;;;9.50;99097.00;;;;16585939;28;20611;-50
2022/09/23 04:16:36;;;;;;;10.17;9.00;;;;;10.00;99078.00;;;;16590779;28;20225;-50
2022/09/23 04:24:38;;;;;;;9.50;8.57;;;;;9.90;99080.00;;;;16566966;28;20224;-50
2022/09/23 04:32:42;;;;;;;9.70;8.57;;;;;10.10;99076.00;;;;16563063;28;20237;-49
2022/09/23 04:40:45;;;;;;;12.70;9.93;;;;;10.10;99073.00;;;;16570914;28;20740;-50
2022/09/23 04:48:49;;;;;;;10.17;9.17;;;;;10.00;99075.00;;;;16588216;28;20241;-50
2022/09/23 04:56:51;;;;;;;9.97;9.07;;;;;10.00;99080.00;;;;16581797;28;20267;-49
2022/09/23 05:04:55;;;;;;;9.23;8.43;;;;;10.00;99090.00;;;;16569748;28;20249;-50
2022/09/23 05:12:58;;;;;;;8.13;7.43;;;;;9.90;99088.00;;;;16589643;28;20217;-50
2022/09/23 05:21:02;;;;;;;8.83;8.03;;;;;9.70;99099.00;;;;16590375;28;20282;-49
2022/09/23 05:29:05;;;;;;;9.47;8.53;;;;;9.60;99102.00;;;;16594225;28;20245;-49
2022/09/23 05:37:09;;;;;;;9.30;8.47;;;;;9.20;99106.00;;;;16586206;28;20579;-50
2022/09/23 05:45:11;;;;;;;8.63;7.73;;;;;8.90;99119.00;;;;16580867;28;20262;-49
2022/09/23 05:53:15;;;;;;;10.60;9.60;;;;;10.10;99103.00;;;;16567238;28;20311;-50
2022/09/23 06:01:19;;;;;;;13.07;9.03;;;;;10.40;99096.00;;;;16556785;28;20222;-50
2022/09/23 06:09:23;;;;;;;11.77;9.80;;;;;10.30;99100.00;;;;16585127;28;20237;-50
2022/09/23 06:17:26;;;;;;;10.40;9.47;;;;;10.50;99096.00;;;;16586113;28;20300;-49
2022/09/23 06:25:29;;;;;;;12.00;9.83;;;;;10.50;99082.00;;;;16589139;28;20371;-50
2022/09/23 06:33:32;;;;;;;12.73;10.37;;;;;10.50;99074.00;;;;16582048;28;20579;-50
2022/09/23 06:41:36;;;;;;;10.87;9.87;;;;;11.10;99074.00;;;;16596549;28;20226;-49
2022/09/23 06:49:40;;;;;;;11.10;10.00;;;;;11.40;99075.00;;;;16602114;28;20216;-49
2022/09/23 06:57:44;;;;;;;9.53;8.63;;;;;11.50;99070.00;;;;16607946;28;20217;-50
2022/09/23 07:05:46;;;;;;;10.13;8.80;;;;;11.70;99086.00;;;;16603758;28;20210;-49
2022/09/23 07:13:50;;;;;;;11.47;8.20;;;;;11.90;99072.00;;;;16604711;28;20622;-49
2022/09/23 07:21:53;;;;;;;8.27;7.53;;;;;12.20;99070.00;;;;16611995;28;20702;-49
2022/09/23 07:29:56;;;;;;;10.90;8.40;;;;;12.60;99060.00;;;;16587502;28;20219;-50
2022/09/23 07:37:59;;;;;;;7.57;6.87;;;;;13.20;99060.00;;;;16585990;28;20261;-48
2022/09/23 07:46:07;;;;;;;8.00;7.30;;;;;13.40;99049.00;;;;16579149;28;20223;-50
2022/09/23 07:54:12;;;;;;;7.97;7.17;;;;;13.90;99044.00;;;;16590616;28;20212;-50
2022/09/23 08:02:16;;;;;;;8.23;7.43;;;;;13.90;99040.00;;;;16579327;28;20294;-50
2022/09/23 08:10:19;;;;;;;8.10;7.30;;;;;14.20;99049.00;;;;16580179;28;20222;-49
2022/09/23 08:18:23;;;;;;;9.90;6.87;;;;;14.80;99036.00;;;;16580916;28;20219;-50
2022/09/23 08:26:26;;;;;;;9.13;7.43;;;;;14.90;99049.00;;;;16580882;28;20307;-49
2022/09/23 08:34:30;;;;;;;9.87;7.50;;;;;15.10;99035.00;;;;16580775;28;20227;-50
2022/09/23 08:42:33;;;;;;;7.63;6.83;;;;;15.40;99038.00;;;;16571414;28;20241;-50
2022/09/23 08:50:42;;;;;;;7.30;6.70;;;;;15.80;99027.00;;;;16573541;28;20276;-49
2022/09/23 08:58:55;;;;;;;9.00;6.37;;;;;16.00;99025.00;;;;16569619;28;20245;-49
2022/09/23 09:07:02;;;;;;;9.73;7.93;;;;;16.20;99033.00;;;;16570934;28;20245;-50
2022/09/23 09:15:07;;;;;;;7.43;6.43;;;;;16.50;99021.00;;;;16563257;28;20257;-50
2022/09/23 09:23:19;;;;;;;7.80;5.60;;;;;17.00;99006.00;;;;16564413;28;20703;-50
2022/09/23 09:31:27;;;;;;;8.17;7.33;;;;;17.90;98999.00;;;;16577232;28;20238;-52
2022/09/23 09:39:31;;;;;;;6.63;6.00;;;;;17.30;98993.00;;;;16588793;28;20241;-50
2022/09/23 09:47:42;;;;;;;7.30;6.70;;;;;17.60;98979.00;;;;16574801;28;20300;-50
2022/09/23 09:55:47;;;;;;;7.20;6.50;;;;;18.50;98966.00;;;;16567018;28;20565;-50
2022/09/23 10:03:50;;;;;;;6.40;5.67;;;;;19.40;98953.00;;;;16550249;28;20224;-50
2022/09/23 10:12:14;;;;;;;5.13;4.73;;;;;19.40;98938.00;;;;16563384;28;20245;-50
2022/09/23 10:20:17;;;;;;;8.77;5.57;;;;;20.20;98926.00;;;;16556248;28;20202;-50
2022/09/23 10:28:46;;;;;;;4.80;4.50;;;;;20.20;98935.00;;;;16573675;28;20719;-50
2022/09/23 10:36:55;;;;;;;8.20;5.20;;;;;22.00;98921.00;;;;16568423;28;20253;-50
2022/09/23 10:53:32;;;;;;;6.17;5.57;;;;;23.70;98897.00;;;;16571245;28;20841;-50
2022/09/23 11:01:41;;;;;;;5.20;4.70;;;;;24.30;98894.00;;;;16571700;28;20874;-51
2022/09/23 11:09:56;;;;;;;5.00;4.50;;;;;24.80;98891.00;;;;16581325;28;20826;-50
2022/09/23 11:18:28;;;;;;;4.13;3.73;;;;;25.10;98877.00;;;;16574936;28;20581;-50
2022/09/23 11:26:39;;;;;;;6.00;3.93;;;;;24.60;98869.00;;;;16569193;28;20247;-50
2022/09/23 11:34:57;;;;;;;7.00;4.80;;;;;24.80;98856.00;;;;16584090;28;20306;-50
2022/09/23 11:43:01;;;;;;;5.83;3.63;;;;;26.60;98850.00;;;;16590294;28;20223;-51
2022/09/23 11:51:09;;;;;;;4.53;3.37;;;;;26.40;98837.00;;;;16570077;28;20219;-50
2022/09/23 11:59:18;;;;;;;5.17;4.30;;;;;27.80;98831.00;;;;16570979;28;20200;-51
2022/09/23 12:07:24;;;;;;;4.10;3.33;;;;;25.00;98837.00;;;;16558247;28;20212;-51
2022/09/23 12:15:38;;;;;;;4.83;3.37;;;;;24.00;98831.00;;;;16572144;28;20219;-51
2022/09/23 12:23:52;;;;;;;3.63;3.10;;;;;24.30;98834.00;;;;16554670;28;20244;-50
2022/09/23 12:31:55;;;;;;;5.13;3.73;;;;;22.40;98836.00;;;;16563354;28;20236;-51
2022/09/23 12:40:09;;;;;;;6.33;4.70;;;;;22.70;98835.00;;;;16564558;28;20199;-51
2022/09/23 12:48:49;;;;;;;3.97;3.67;;;;;25.10;98824.00;;;;16580525;28;20224;-50
2022/09/23 12:57:09;;;;;;;4.23;3.13;;;;;26.80;98810.00;;;;16580678;28;20302;-51
2022/09/23 13:13:43;;;;;;;4.33;3.00;;;;;24.90;98794.00;;;;16584807;28;20219;-51
2022/09/23 13:22:06;;;;;;;4.50;4.00;;;;;24.50;98774.00;;;;16587409;28;20968;-50
2022/09/23 13:30:20;;;;;;;4.87;3.90;;;;;23.20;98783.00;;;;16581798;28;20752;-49
2022/09/23 13:38:26;;;;;;;4.87;4.00;;;;;22.80;98780.00;;;;16591250;28;20229;-50
2022/09/23 13:46:34;;;;;;;5.10;4.67;;;;;22.90;98780.00;;;;16579418;28;20696;-49
2022/09/23 13:54:48;;;;;;;8.53;5.07;;;;;22.20;98777.00;;;;16582669;28;21623;-51
2022/09/23 14:02:52;;;;;;;4.60;4.20;;;;;23.20;98767.00;;;;16583928;28;20741;-50
2022/09/23 14:10:56;;;;;;;4.77;4.03;;;;;23.80;98760.00;;;;16585412;28;20234;-51
2022/09/23 14:19:01;;;;;;;4.30;3.90;;;;;25.60;98754.00;;;;16575519;28;20218;-51
2022/09/23 14:27:11;;;;;;;5.20;4.80;;;;;24.10;98759.00;;;;16576401;28;20575;-50
2022/09/23 14:35:23;;;;;;;12.03;5.00;;;;;25.00;98738.00;;;;16540485;28;20212;-51
2022/09/23 14:43:27;;;;;;;9.17;5.43;;;;;24.30;98738.00;;;;16547187;28;20231;-51
2022/09/23 14:51:35;;;;;;;5.20;4.70;;;;;25.90;98731.00;;;;16575400;28;20227;-52
2022/09/23 14:59:38;;;;;;;5.10;4.70;;;;;26.70;98720.00;;;;16565608;28;20203;-51
2022/09/23 15:07:42;;;;;;;6.27;5.67;;;;;27.40;98717.00;;;;16564877;28;20223;-51
2022/09/23 15:15:45;;;;;;;6.23;4.93;;;;;26.20;98711.00;;;;16565868;28;20229;-50
2022/09/23 15:23:51;;;;;;;5.20;4.80;;;;;25.20;98709.00;;;;16561344;28;20623;-51
2022/09/23 15:31:53;;;;;;;6.57;5.20;;;;;24.20;98720.00;;;;16582744;28;20441;-50
2022/09/23 15:39:57;;;;;;;6.07;4.83;;;;;22.80;98717.00;;;;16582333;28;20292;-50
2022/09/23 15:48:02;;;;;;;5.70;5.10;;;;;22.40;98723.00;;;;16552181;28;20300;-50
2022/09/23 15:56:06;;;;;;;6.63;5.03;;;;;23.10;98727.00;;;;16550094;28;20220;-50
2022/09/23 16:04:10;;;;;;;6.10;5.13;;;;;22.10;98722.00;;;;16559581;28;20231;-50
2022/09/23 16:12:14;;;;;;;14.60;4.83;;;;;20.70;98722.00;;;;16567490;28;20228;-50
2022/09/23 16:20:17;;;;;;;4.47;4.03;;;;;20.10;98739.00;;;;16555716;28;20195;-49
2022/09/23 16:28:21;;;;;;;20.30;12.53;;;;;20.20;98732.00;;;;16552126;28;20227;-50
2022/09/23 16:36:25;;;;;;;5.23;4.77;;;;;19.80;98741.00;;;;16574680;28;20227;-50
2022/09/23 16:44:30;;;;;;;10.27;7.67;;;;;19.40;98740.00;;;;16570943;28;20590;-51
2022/09/23 16:52:32;;;;;;;13.00;10.37;;;;;18.90;98738.00;;;;16564262;28;20232;-51
2022/09/23 17:08:56;;;;;;;5.17;4.67;;;;;18.00;98745.00;;;;16562637;28;20224;-50
2022/09/23 17:17:00;;;;;;;6.97;5.57;;;;;17.50;98758.00;;;;16551506;28;20219;-51
2022/09/23 17:25:03;;;;;;;5.77;5.17;;;;;17.30;98747.00;;;;16558396;28;20318;-50
2022/09/23 17:33:07;;;;;;;5.47;4.63;;;;;16.80;98742.00;;;;16552331;28;20224;-50
2022/09/23 17:41:10;;;;;;;7.10;6.50;;;;;16.70;98758.00;;;;16552530;28;20236;-50
2022/09/23 17:49:14;;;;;;;6.57;5.80;;;;;16.70;98750.00;;;;16570983;28;20215;-50
2022/09/23 17:57:16;;;;;;;7.47;6.70;;;;;16.30;98764.00;;;;16560082;28;20793;-51
2022/09/23 18:05:20;;;;;;;9.37;7.27;;;;;16.10;98747.00;;;;16557478;28;20224;-50
2022/09/23 18:13:23;;;;;;;8.63;6.03;;;;;15.90;98750.00;;;;16580093;28;20232;-51
2022/09/23 18:21:28;;;;;;;6.00;5.50;;;;;15.60;98737.00;;;;16551391;28;20702;-50
2022/09/23 18:29:32;;;;;;;9.17;6.00;;;;;15.40;98750.00;;;;16544765;28;20234;-50
2022/09/23 18:37:36;;;;;;;7.20;6.57;;;;;15.40;98742.00;;;;16545116;28;20236;-50
2022/09/23 18:45:38;;;;;;;6.83;6.20;;;;;15.40;98751.00;;;;16539967;28;20757;-50
2022/09/23 18:53:42;;;;;;;16.33;8.50;;;;;15.00;98740.00;;;;16563306;28;20222;-50
2022/09/23 19:01:45;;;;;;;7.80;7.03;;;;;15.10;98732.00;;;;16562843;28;20234;-49
2022/09/23 19:09:49;;;;;;;7.97;7.27;;;;;15.00;98723.00;;;;16556612;28;20821;-50
2022/09/23 19:17:52;;;;;;;9.47;6.97;;;;;15.00;98742.00;;;;16555065;28;20218;-50
2022/09/23 19:25:56;;;;;;;6.73;6.07;;;;;15.20;98741.00;;;;16591445;28;20227;-50
2022/09/23 19:34:00;;;;;;;7.40;6.80;;;;;15.50;98734.00;;;;16548376;28;20233;-52
2022/09/23 19:42:04;;;;;;;7.60;6.93;;;;;15.30;98726.00;;;;16565273;28;20234;-48
2022/09/23 19:50:08;;;;;;;7.60;6.90;;;;;15.00;98728.00;;;;16597040;28;20222;-51
2022/09/23 19:58:13;;;;;;;7.43;6.73;;;;;15.00;98726.00;;;;16603106;28;20217;-50
2022/09/23 20:06:16;;;;;;;8.10;7.00;;;;;15.20;98716.00;;;;16598913;28;20732;-50
2022/09/23 20:14:21;;;;;;;9.27;6.47;;;;;14.70;98714.00;;;;16602020;28;20210;-50
2022/09/23 20:22:27;;;;;;;9.10;8.30;;;;;14.80;98710.00;;;;16581299;28;20237;-50
2022/09/23 20:30:36;;;;;;;8.27;7.57;;;;;15.30;98694.00;;;;16545079;28;20201;-50
2022/09/23 20:38:38;;;;;;;7.93;6.57;;;;;14.80;98695.00;;;;16537753;28;20242;-50
2022/09/23 20:46:43;;;;;;;7.50;6.83;;;;;15.20;98694.00;;;;16551856;28;20233;-50
2022/09/23 20:54:46;;;;;;;7.80;6.77;;;;;15.10;98692.00;;;;16550057;28;20224;-50
2022/09/23 21:02:50;;;;;;;7.10;6.07;;;;;14.40;98693.00;;;;16562124;28;20289;-50
2022/09/23 21:10:54;;;;;;;6.73;6.03;;;;;14.20;98695.00;;;;16560386;28;20218;-50
2022/09/23 21:18:58;;;;;;;7.40;6.70;;;;;13.90;98696.00;;;;16573618;28;20203;-50
2022/09/23 21:27:02;;;;;;;8.13;7.30;;;;;13.80;98693.00;;;;16583727;28;20209;-51
2022/09/23 21:35:06;;;;;;;7.90;7.20;;;;;14.10;98681.00;;;;16590895;28;20223;-50
2022/09/23 21:43:09;;;;;;;7.47;6.87;;;;;13.70;98702.00;;;;16595145;28;20227;-49
2022/09/23 21:51:15;;;;;;;8.00;7.17;;;;;14.10;98705.00;;;;16594135;28;20304;-50
2022/09/23 21:59:18;;;;;;;7.97;7.20;;;;;14.00;98699.00;;;;16592303;28;20196;-51
2022/09/23 22:07:22;;;;;;;8.93;7.90;;;;;13.70;98701.00;;;;16589861;28;20302;-50
2022/09/23 22:15:24;;;;;;;7.70;6.60;;;;;13.70;98693.00;;;;16597643;28;20230;-52
2022/09/23 22:23:28;;;;;;;10.60;7.80;;;;;13.90;98687.00;;;;16558566;22;20728;-49
2022/09/23 22:39:52;;;;;;;9.27;8.47;;;;;13.60;98698.00;;;;16464136;28;20232;-49
2022/09/23 22:47:54;;;;;;;8.80;8.00;;;;;13.80;98690.00;;;;16458009;28;20230;-49
2022/09/23 22:56:01;;;;;;;9.10;8.40;;;;;13.70;98700.00;;;;16458169;28;20221;-49
2022/09/23 23:04:04;;;;;;;11.20;9.20;;;;;14.10;98686.00;;;;16459264;28;20219;-49
2022/09/23 23:12:08;;;;;;;8.87;7.97;;;;;14.60;98681.00;;;;16449239;28;20225;-49
2022/09/23 23:20:11;;;;;;;9.47;8.47;;;;;13.90;98669.00;;;;16450601;28;20268;-49
2022/09/23 23:28:15;;;;;;;9.87;8.90;;;;;13.80;98662.00;;;;16459334;28;20236;-49
2022/09/23 23:36:19;;;;;;;8.80;8.10;;;;;13.90;98662.00;;;;16481221;28;20192;-49
2022/09/23 23:44:23;;;;;;;9.00;8.20;;;;;13.70;98659.00;;;;16462978;28;20228;-49
2022/09/23 23:52:26;;;;;;;8.43;7.63;;;;;14.10;98661.00;;;;16462249;28;20720;-50
